This is the latest recevied weather packets stored in our database for station/object XE2RCS-21. If no packets are shown the sender has not sent any weather packets the latest 10 day(s).
| Time | Temp. | Humidity | Pressure | Rain* | Wind** | Luminosity | Snow |
|---|---|---|---|---|---|---|---|
| 1778031040 | 31.11° C | 26% | 1016.7 hPa | - | - | - | - |
| 1778029240 | 33.89° C | 21% | 1016.4 hPa | - | - | - | - |
| 1778027439 | 35.56° C | 17% | 1016.1 hPa | - | - | - | - |
| 1778025639 | 36.67° C | 17% | 1015.8 hPa | - | - | - | - |
| 1778023839 | 37.22° C | 17% | 1015.8 hPa | - | - | - | - |
| 1778022039 | 38.89° C | 17% | 1015.8 hPa | - | - | - | - |
| 1778020238 | 37.78° C | 17% | 1016 hPa | - | - | - | - |
| 1778018438 | 40° C | 17% | 1016 hPa | - | - | - | - |
| 1778016639 | 37.78° C | 17% | 1016.4 hPa | - | - | - | - |
| 1778014839 | 39.44° C | 16% | 1016.6 hPa | - | - | - | - |
| 1778013039 | 39.44° C | 17% | 1017.1 hPa | - | - | - | - |
| 1778011239 | 38.33° C | 18% | 1017.6 hPa | - | - | - | - |
| 1778009438 | 40° C | 16% | 1017.9 hPa | - | - | - | - |
| 1778007638 | 43.89° C | 14% | 1018 hPa | - | - | - | - |
| 1778005838 | 45.56° C | 14% | 1018.3 hPa | - | - | - | - |
| 1778004038 | 45° C | 14% | 1018.5 hPa | - | - | - | - |
| 1778002238 | 45° C | 17% | 1018.8 hPa | - | - | - | - |
| 1778000438 | 40.56° C | 20% | 1019 hPa | - | - | - | - |
| 1777998637 | 37.22° C | 23% | 1019.3 hPa | - | - | - | - |
| 1777996837 | 37.22° C | 26% | 1019.5 hPa | - | - | - | - |
| 1777995038 | 32.22° C | 31% | 1019.6 hPa | - | - | - | - |
| 1777993237 | 31.67° C | 35% | 1019.5 hPa | - | - | - | - |
| 1777991437 | 27.78° C | 42% | 1019.6 hPa | - | - | - | - |
| 1777989637 | 26.11° C | 48% | 1019.5 hPa | - | - | - | - |
| 1777987837 | 24.44° C | 58% | 1019.4 hPa | - | - | - | - |
* Rain since midnight (hover to see other rain measurements)
** Current wind speed in m/s (hover to see current wind gust speed)